Nearby METAR Reports

 

KNFE - Fentress Naval, Virginia, USA
Distance from station: ENE 5mi, 7km
Updated: Fri, 25-Sep-2020 3:56pm EDT
Overcast
Overcast
 Wind from E
Wind: E 9 mph , 15 km/h
Temperature: 68°F , 20°C
Dew Point: 64°F , 18°C
Humidity: 88%
Barometer: 30.08 inHg , 1018.6 hPa
Clouds: Overcast
Visibility: 10 miles , 16 km
Cloud details: Mostly cloudy 1100 ft
Overcast 10000 ft
2020/09/25 19:56 KNFE 251956Z AUTO 08008KT 10SM BKN011 OVC100 20/18 A3008 RMK AO2 RAE06 SLP189 P0000 T02000183
KCPK - Chesapeake, Virginia, USA
Distance from station: W 6mi, 9km
Updated: Fri, 25-Sep-2020 4:15pm EDT
Rain, Overcast
Rain, Overcast
 Wind from ENE
Wind: ENE 7 mph , 11 km/h
Temperature: 68°F , 20°C
Dew Point: 64°F , 18°C
Humidity: 88%
Barometer: 30.08 inHg , 1018.6 hPa
Summary: Rain
Clouds: Overcast
Visibility: 10 miles , 16 km
Cloud details: Mostly cloudy 1200 ft
Mostly cloudy 4000 ft
Overcast 4800 ft
2020/09/25 20:15 KCPK 252015Z AUTO 06006KT 10SM RA BKN012 BKN040 OVC048 20/18 A3008 RMK AO2 T01970180
 
KNTU - Oceana Nas/Souce, Virginia, USA
Distance from station: NE 14mi, 23km
Updated: Fri, 25-Sep-2020 3:56pm EDT
Overcast
Overcast
 Wind from E
Wind: E 10 mph , 17 km/h
Temperature: 70°F , 21°C
Dew Point: 64°F , 18°C
Humidity: 83%
Barometer: 30.08 inHg , 1018.6 hPa
Clouds: Overcast
Visibility: 10 miles , 16 km
Cloud details: Partly cloudy 1100 ft
Mostly cloudy 8000 ft
Overcast 11000 ft
2020/09/25 19:56 KNTU 251956Z 10009KT 10SM SCT011 BKN080 OVC110 21/18 A3008 RMK AO2 SLP190 T02110178
KORF - Norfolk, Virginia, USA
Distance from station: N 15mi, 24km
Updated: Fri, 25-Sep-2020 3:51pm EDT
Overcast
Overcast
 Wind from ENE
Wind: ENE 7 mph , 11 km/h
Temperature: 68°F , 20°C
Dew Point: 61°F , 16°C
Humidity: 78%
Barometer: 30.09 inHg , 1019 hPa
Clouds: Overcast
Visibility: 10 miles , 16 km
Cloud details: Few Clouds 6000 ft
Overcast 8500 ft
2020/09/25 19:51 KORF 251951Z 07006KT 10SM FEW060 OVC085 20/16 A3009 RMK AO2 RAB31E47 SLP188 P0000 T02000161
 
KPVG - Norfolk/Hampton, Virginia, USA
Distance from station: WNW 15mi, 24km
Updated: Fri, 25-Sep-2020 3:56pm EDT
Overcast
Overcast
 Wind from E
Wind: E 7 mph , 11 km/h
Temperature: 66°F , 19°C
Dew Point: 64°F , 18°C
Humidity: 94%
Barometer: 30.10 inHg , 1019.3 hPa
Clouds: Overcast
Visibility: 10 miles , 16 km
Cloud details: Mostly cloudy 1000 ft
Mostly cloudy 1400 ft
Overcast 8000 ft
2020/09/25 19:56 KPVG 251956Z AUTO 08006KT 10SM BKN010 BKN014 OVC080 19/18 A3010 RMK AO2 RAE06 CIG 008V013 SLP193 T01890183 PNO $
KNGU - Norfolk Nas/Cham, Virginia, USA
Distance from station: N 16mi, 26km
Updated: Fri, 25-Sep-2020 3:59pm EDT
Light rain, Overcast
Light rain, Overcast
 Wind from E
Wind: E 7 mph , 11 km/h
Temperature: 66°F , 19°C
Dew Point: 61°F , 16°C
Humidity: 83%
Barometer: 30.10 inHg , 1019.3 hPa
Summary: Light rain
Clouds: Overcast
Visibility: 10 miles , 16 km
Cloud details: Overcast 8000 ft
2020/09/25 19:59 KNGU 251959Z 10006KT 10SM -RA OVC080 19/16 A3010 RMK AO2 SLP194 P0001 T01940156 $
 
KSFQ - Suffolk, Virginia, USA
Distance from station: W 21mi, 34km
Updated: Fri, 25-Sep-2020 3:55pm EDT
Overcast
Overcast
 Wind from E
Wind: E 5 mph , 7 km/h
Temperature: 68°F , 20°C
Dew Point: 66°F , 19°C
Humidity: 94%
Barometer: 30.09 inHg , 1019 hPa
Clouds: Overcast
Visibility: 10 miles , 16 km
Cloud details: Mostly cloudy 1000 ft
Overcast 1300 ft
2020/09/25 19:55 KSFQ 251955Z AUTO 08004KT 10SM BKN010 OVC013 20/19 A3009 RMK AO2 T01990192
KONX - Currituck, North Carolina, USA
Distance from station: SSE 22mi, 36km
Updated: Fri, 25-Sep-2020 3:55pm EDT
Mostly cloudy
Mostly cloudy
 Wind from ENE
Wind: ENE 7 mph , 11 km/h
Temperature: 68°F , 20°C
Dew Point: 68°F , 20°C
Humidity: 100%
Barometer: 30.08 inHg , 1018.6 hPa
Clouds: Mostly cloudy
Visibility: 10 miles , 16 km
Cloud details: Partly cloudy 3000 ft
Partly cloudy 3600 ft
Mostly cloudy 10000 ft
2020/09/25 19:55 KONX 251955Z AUTO 07006KT 10SM SCT030 SCT036 BKN100 20/20 A3008 RMK AO2 P0001 T02010201
 
KLFI - Langley Afb/Hamp, Virginia, USA
Distance from station: NNW 28mi, 45km
Updated: Fri, 25-Sep-2020 3:56pm EDT
Light rain, Mist, Overcast
Light rain, Mist, Overcast
 Wind from NE
Wind: NE 10 mph , 17 km/h
Temperature: 64°F , 18°C
Dew Point: 64°F , 18°C
Humidity: 100%
Barometer: 30.09 inHg , 1019 hPa
Summary: Light rain, Mist
Clouds: Overcast
Visibility: 1 7/8 miles , 3 km
Cloud details: Mostly cloudy 3000 ft
Overcast 4500 ft
2020/09/25 19:56 KLFI 251956Z 05009KT 1 7/8SM -RA BR BKN030 OVC045 18/18 A3009 RMK AO2A VIS 1 3/8V1 7/8 DZB32E32RAB32 SLP196 P0003 T01800178 $
KECG - Elizabeth City, North Carolina, USA
Distance from station: S 29mi, 46km
Updated: Fri, 25-Sep-2020 3:54pm EDT
Mostly cloudy
Mostly cloudy
 Wind from ENE
Wind: ENE 12 mph , 19 km/h
Temperature: 73°F , 23°C
Dew Point: 66°F , 19°C
Humidity: 78%
Barometer: 30.08 inHg , 1018.6 hPa
Clouds: Mostly cloudy
Visibility: 10 miles , 16 km
Cloud details: Few Clouds 3500 ft
Few Clouds 5500 ft
Mostly cloudy 11000 ft
2020/09/25 19:54 KECG 251954Z 07010KT 10SM FEW035 FEW055 BKN110 23/19 A3008 RMK AO2 SLP184 T02280194
 
KPHF - Newport News, Virginia, USA
Distance from station: NNW 35mi, 56km
Updated: Fri, 25-Sep-2020 3:54pm EDT
Light rain, Overcast
Light rain, Overcast
 Wind from NE
Wind: NE 8 mph , 13 km/h
Temperature: 68°F , 20°C
Dew Point: 59°F , 15°C
Humidity: 73%
Barometer: 30.09 inHg , 1019 hPa
Summary: Light rain
Clouds: Overcast
Visibility: 6 miles , 10 km
Cloud details: Few Clouds 6000 ft
Mostly cloudy 7500 ft
Overcast 9500 ft
2020/09/25 19:54 KPHF 251954Z 05007KT 6SM -RA FEW060 BKN075 OVC095 20/15 A3009 RMK AO2 PRESFR SLP188 P0001 T02000150
KFAF - Ft Eustis/Felker, Virginia, USA
Distance from station: NW 37mi, 60km
Updated: Fri, 25-Sep-2020 3:37pm EDT
Light rain, Mostly cloudy
Light rain, Mostly cloudy
 Wind from E
Wind: E 7 mph , 11 km/h
Temperature: 68°F , 20°C
Dew Point: 61°F , 16°C
Humidity: 78%
Barometer: 30.08 inHg , 1018.6 hPa
Summary: Light rain
Clouds: Mostly cloudy
Visibility: 10 miles , 16 km
Cloud details: Partly cloudy 4000 ft
Mostly cloudy 10000 ft
2020/09/25 19:37 KFAF 251937Z 09006KT 10SM -RA SCT040 BKN100 20/16 A3008 RMK AO2A RAB14E15DZB15E23RAB23E24RAB37 SLP189 $
 
KFKN - Franklin/J B Ros, Virginia, USA
Distance from station: W 38mi, 61km
Updated: Fri, 25-Sep-2020 3:55pm EDT
Light rain, Overcast
Light rain, Overcast
 Wind from E
Wind: E 7 mph , 11 km/h
Temperature: 64°F , 18°C
Dew Point: 64°F , 18°C
Humidity: 100%
Barometer: 30.08 inHg , 1018.6 hPa
Summary: Light rain
Clouds: Overcast
Visibility: 10 miles , 16 km
Cloud details: Overcast 700 ft
2020/09/25 19:55 KFKN 251955Z AUTO 08006KT 10SM -RA OVC007 18/18 A3008 RMK AO2 T01820180
KJGG - Williamsburg, Virginia, USA
Distance from station: NW 47mi, 76km
Updated: Fri, 25-Sep-2020 3:55pm EDT
Mostly cloudy
Mostly cloudy
 Wind from calm
Wind: Calm
Temperature: 66°F , 19°C
Dew Point: 66°F , 19°C
Humidity: 100%
Barometer: 30.10 inHg , 1019.3 hPa
Clouds: Mostly cloudy
Visibility: 10 miles , 16 km
Cloud details: Partly cloudy 4100 ft
Mostly cloudy 6000 ft
Mostly cloudy 7000 ft
2020/09/25 19:55 KJGG 251955Z AUTO 00000KT 10SM SCT041 BKN060 BKN070 19/19 A3010 RMK AO1
 
KAKQ - Norfolk/Wakefld, Virginia, USA
Distance from station: WNW 48mi, 78km
Updated: Fri, 25-Sep-2020 3:54pm EDT
Rain, Mist, Overcast
Rain, Mist, Overcast
 Wind from calm
Wind: Calm
Temperature: 66°F , 19°C
Dew Point: 64°F , 18°C
Humidity: 94%
Barometer: 30.09 inHg , 1019 hPa
Summary: Rain, Mist
Clouds: Overcast
Visibility: 3 miles , 5 km
Cloud details: Mostly cloudy 900 ft
Mostly cloudy 1900 ft
Overcast 5500 ft
2020/09/25 19:54 KAKQ 251954Z AUTO 00000KT 3SM RA BR BKN009 BKN019 OVC055 19/18 A3009 RMK AO2 CIG 005V013 SLP187 P0003 T01890178
KEDE - Edenton, North Carolina, USA
Distance from station: SSW 50mi, 80km
Updated: Fri, 25-Sep-2020 3:55pm EDT
Mostly cloudy
Mostly cloudy
 Wind from E
Wind: E 12 mph , 19 km/h
Temperature: 72°F , 22°C
Dew Point: 70°F , 21°C
Humidity: 94%
Barometer: 30.09 inHg , 1019 hPa
Clouds: Mostly cloudy
Visibility: 10 miles , 16 km
Cloud details: Partly cloudy 900 ft
Partly cloudy 3300 ft
Mostly cloudy 5500 ft
2020/09/25 19:55 KEDE 251955Z AUTO 09010KT 10SM SCT009 SCT033 BKN055 22/21 A3009 RMK AO2 T02190206